createdAt,value
2019-03-21T00:01:30.840Z,25.07
2019-03-21T00:04:03.432Z,25.27
2019-03-21T00:06:33.174Z,24.27
2019-03-21T00:09:05.274Z,23.03
2019-03-21T00:11:57.549Z,24.03
2019-03-21T00:14:55.782Z,23.50
2019-03-21T00:17:34.750Z,23.67
2019-03-21T00:20:06.094Z,22.17
2019-03-21T00:22:35.859Z,23.30
2019-03-21T00:25:06.500Z,22.07
2019-03-21T00:27:36.343Z,20.93
2019-03-21T00:30:09.997Z,22.83
2019-03-21T00:32:39.855Z,22.90
2019-03-21T00:35:09.942Z,22.27
2019-03-21T00:37:39.729Z,22.17
2019-03-21T00:40:12.844Z,23.13
2019-03-21T00:42:42.737Z,23.03
2019-03-21T00:45:13.945Z,20.83
2019-03-21T00:47:43.769Z,22.67
2019-03-21T00:50:15.318Z,22.13
2019-03-21T00:52:46.457Z,22.47
2019-03-21T00:55:16.309Z,22.30
2019-03-21T00:57:46.214Z,22.53
2019-03-21T01:00:19.486Z,21.73
2019-03-21T01:02:49.235Z,21.13
2019-03-21T01:05:19.034Z,22.47
2019-03-21T01:07:49.060Z,23.97
2019-03-21T01:10:19.744Z,22.57
2019-03-21T01:12:49.581Z,23.27
2019-03-21T01:15:19.371Z,23.37
2019-03-21T01:17:49.131Z,22.47
2019-03-21T01:20:18.912Z,23.27
2019-03-21T01:22:48.677Z,24.20
2019-03-21T01:25:33.885Z,25.03
2019-03-21T01:28:03.677Z,25.33
2019-03-21T01:30:33.506Z,25.10
2019-03-21T01:33:03.328Z,23.80
2019-03-21T01:35:33.164Z,25.93
2019-03-21T01:38:02.924Z,25.80
2019-03-21T01:40:33.903Z,25.77
2019-03-21T01:43:03.738Z,26.23
2019-03-21T01:45:33.499Z,25.60
2019-03-21T01:48:06.433Z,25.73
2019-03-21T01:50:36.275Z,25.70
2019-03-21T01:53:06.094Z,27.07
2019-03-21T01:55:35.849Z,27.23
2019-03-21T01:58:05.657Z,26.77
2019-03-21T02:00:37.451Z,28.20
2019-03-21T02:03:07.258Z,27.83
2019-03-21T02:05:37.159Z,26.73
2019-03-21T02:08:06.989Z,27.23
2019-03-21T02:10:37.027Z,28.63
2019-03-21T02:13:06.911Z,27.83
2019-03-21T02:15:36.723Z,27.60
2019-03-21T02:18:06.835Z,27.07
2019-03-21T02:20:36.693Z,27.10
2019-03-21T02:23:06.476Z,28.47
2019-03-21T02:25:36.272Z,28.47
2019-03-21T02:28:06.094Z,26.90
2019-03-21T02:30:36.997Z,27.77
2019-03-21T02:33:19.429Z,27.13
2019-03-21T02:35:49.172Z,27.20
2019-03-21T02:38:18.976Z,26.13
2019-03-21T02:40:48.802Z,28.43
2019-03-21T02:43:18.699Z,29.43
2019-03-21T02:45:48.519Z,27.00
2019-03-21T02:48:18.409Z,28.53
2019-03-21T02:50:48.214Z,28.37
2019-03-21T02:53:17.979Z,28.33
2019-03-21T02:55:47.862Z,27.97
2019-03-21T02:58:17.715Z,27.97
2019-03-21T03:00:47.533Z,28.30
2019-03-21T03:03:17.810Z,31.57
2019-03-21T03:05:47.708Z,30.80
2019-03-21T03:08:18.048Z,32.60
2019-03-21T03:10:49.857Z,33.27
2019-03-21T03:13:19.691Z,31.60
2019-03-21T03:15:49.439Z,32.60
2019-03-21T03:18:19.322Z,32.97
2019-03-21T03:20:49.155Z,33.67
2019-03-21T03:23:21.803Z,33.87
2019-03-21T03:25:51.856Z,35.60
2019-03-21T03:28:23.740Z,35.97
2019-03-21T03:30:54.426Z,36.63
2019-03-21T03:33:24.295Z,32.90
2019-03-21T03:35:54.228Z,35.77
2019-03-21T03:38:24.133Z,38.20
2019-03-21T03:40:56.540Z,38.23
2019-03-21T03:43:26.380Z,38.13
2019-03-21T03:45:56.268Z,37.60
2019-03-21T03:48:28.516Z,39.77
2019-03-21T03:50:58.346Z,41.67
2019-03-21T03:53:28.177Z,41.40
2019-03-21T03:55:58.072Z,40.20
2019-03-21T03:58:27.990Z,39.83
2019-03-21T04:00:58.114Z,40.60
2019-03-21T04:03:27.996Z,40.83
2019-03-21T04:05:57.849Z,38.17
2019-03-21T04:08:27.691Z,39.20
2019-03-21T04:10:58.140Z,39.30
2019-03-21T04:13:31.014Z,39.37
2019-03-21T04:16:00.828Z,39.47
2019-03-21T04:18:30.695Z,39.37
2019-03-21T04:21:01.686Z,39.00
2019-03-21T04:23:31.676Z,38.57
2019-03-21T04:26:10.872Z,38.30
2019-03-21T04:28:41.373Z,38.83
2019-03-21T04:31:11.501Z,40.30
2019-03-21T04:33:41.911Z,41.43
2019-03-21T04:36:11.726Z,40.93
2019-03-21T04:38:41.482Z,42.80
2019-03-21T04:41:11.471Z,44.00
2019-03-21T04:43:41.247Z,43.87
2019-03-21T04:46:11.146Z,44.07
2019-03-21T04:48:41.030Z,43.77
2019-03-21T04:51:10.771Z,42.13
2019-03-21T04:53:40.549Z,43.07
2019-03-21T04:56:10.355Z,42.33
2019-03-21T04:58:40.133Z,45.40
2019-03-21T05:01:09.899Z,43.53
2019-03-21T05:03:39.692Z,45.50
2019-03-21T05:06:09.619Z,46.53
2019-03-21T05:08:39.382Z,46.30
2019-03-21T05:11:09.233Z,42.53
2019-03-21T05:13:39.148Z,46.23
2019-03-21T05:16:14.668Z,46.37
2019-03-21T05:18:41.627Z,50.63
2019-03-21T05:21:12.469Z,43.37
2019-03-21T05:23:42.457Z,43.03
2019-03-21T05:26:12.314Z,41.30
2019-03-21T05:28:49.737Z,43.50
2019-03-21T05:31:23.193Z,40.23
2019-03-21T05:33:52.980Z,44.70
2019-03-21T05:36:22.894Z,46.10
2019-03-21T05:38:52.802Z,40.67
2019-03-21T05:41:22.618Z,40.60
2019-03-21T05:44:02.000Z,39.80
2019-03-21T05:46:32.193Z,40.77
2019-03-21T05:49:02.032Z,40.13
2019-03-21T05:51:31.842Z,40.93
2019-03-21T05:54:01.684Z,42.93
2019-03-21T05:56:31.510Z,41.70
2019-03-21T05:59:01.373Z,40.20
2019-03-21T06:01:31.358Z,39.17
2019-03-21T06:04:01.133Z,41.53
2019-03-21T06:06:38.935Z,42.10
2019-03-21T06:09:10.448Z,43.27
2019-03-21T06:11:41.722Z,43.73
2019-03-21T06:14:11.692Z,44.33
2019-03-21T06:16:41.648Z,42.87
2019-03-21T06:19:15.669Z,43.53
2019-03-21T06:22:10.317Z,43.53
2019-03-21T06:25:08.545Z,41.73
2019-03-21T06:27:38.277Z,43.70
2019-03-21T06:30:10.602Z,43.70
2019-03-21T06:32:40.658Z,42.50
2019-03-21T06:35:25.513Z,38.70
2019-03-21T06:37:55.334Z,40.33
2019-03-21T06:40:25.219Z,39.83
2019-03-21T06:42:55.174Z,39.80
2019-03-21T06:45:25.321Z,38.93
2019-03-21T06:47:55.132Z,35.63
2019-03-21T06:50:28.114Z,37.63
2019-03-21T06:52:57.977Z,34.53
2019-03-21T06:55:27.738Z,33.83
2019-03-21T06:57:57.668Z,32.23
2019-03-21T07:00:27.687Z,31.57
2019-03-21T07:02:57.551Z,33.03
2019-03-21T07:05:27.561Z,29.53
2019-03-21T07:07:57.351Z,29.77
2019-03-21T07:10:27.153Z,29.30
2019-03-21T07:12:56.979Z,28.53
2019-03-21T07:15:26.782Z,27.57
2019-03-21T07:17:56.524Z,27.63
2019-03-21T07:20:26.448Z,27.10
2019-03-21T07:22:56.324Z,27.67
2019-03-21T07:25:26.076Z,24.50
2019-03-21T07:27:55.896Z,26.50
2019-03-21T07:30:25.718Z,24.17
2019-03-21T07:32:55.528Z,23.17
2019-03-21T07:35:25.342Z,23.60
2019-03-21T07:37:55.198Z,23.73
2019-03-21T07:40:24.969Z,21.77
2019-03-21T07:42:54.713Z,22.70
2019-03-21T07:45:24.610Z,22.20
2019-03-21T07:47:54.332Z,22.07
2019-03-21T07:50:24.155Z,21.83
2019-03-21T07:52:54.105Z,21.67
2019-03-21T07:55:24.003Z,21.90
2019-03-21T07:57:53.855Z,20.87
2019-03-21T08:00:23.642Z,22.20
2019-03-21T08:02:53.399Z,22.60
2019-03-21T08:05:23.174Z,21.67
2019-03-21T08:07:52.977Z,22.83
2019-03-21T08:10:22.800Z,22.67
2019-03-21T08:12:52.563Z,23.73
2019-03-21T08:15:22.769Z,22.47
2019-03-21T08:17:52.606Z,22.20
2019-03-21T08:20:22.440Z,22.23
2019-03-21T08:22:52.348Z,21.77
2019-03-21T08:25:22.130Z,21.30
2019-03-21T08:27:52.049Z,21.87
2019-03-21T08:31:04.212Z,20.43
2019-03-21T08:33:33.974Z,21.17
2019-03-21T08:36:03.908Z,21.53
2019-03-21T08:38:33.850Z,21.07
2019-03-21T08:41:03.691Z,21.07
2019-03-21T08:43:33.601Z,21.03
2019-03-21T08:46:03.500Z,21.87
2019-03-21T08:48:33.278Z,21.47
2019-03-21T08:51:08.314Z,20.83
2019-03-21T08:53:34.622Z,21.63
2019-03-21T08:56:04.670Z,19.52
2019-03-21T08:58:34.791Z,19.33
2019-03-21T09:01:04.582Z,19.97
2019-03-21T09:03:34.393Z,19.47
2019-03-21T09:06:04.863Z,20.13
2019-03-21T09:08:34.785Z,20.73
2019-03-21T09:11:04.554Z,18.37
2019-03-21T09:13:34.310Z,19.93
2019-03-21T09:16:04.384Z,19.20
2019-03-21T09:18:34.287Z,18.20
2019-03-21T09:21:04.139Z,18.27
2019-03-21T09:23:33.907Z,17.87
2019-03-21T09:26:03.829Z,19.97
2019-03-21T09:28:33.585Z,19.10
2019-03-21T09:31:03.789Z,20.67
2019-03-21T09:33:33.704Z,20.50
2019-03-21T09:36:03.541Z,19.57
2019-03-21T09:38:33.394Z,20.10
2019-03-21T09:41:03.153Z,20.70
2019-03-21T09:43:32.924Z,21.13
2019-03-21T09:46:02.717Z,20.77
2019-03-21T09:48:32.734Z,20.93
2019-03-21T09:51:02.466Z,22.37
2019-03-21T09:53:32.322Z,24.23
2019-03-21T09:56:02.160Z,22.27
2019-03-21T09:58:32.042Z,26.00
2019-03-21T10:01:01.830Z,27.93
2019-03-21T10:03:31.654Z,30.57
2019-03-21T10:06:01.496Z,29.80
2019-03-21T10:08:31.330Z,31.47
2019-03-21T10:11:01.097Z,32.47
2019-03-21T10:13:30.926Z,31.87
2019-03-21T10:16:00.770Z,34.37
2019-03-21T10:18:30.588Z,34.17
2019-03-21T10:21:00.364Z,34.10
2019-03-21T10:23:30.218Z,35.73
2019-03-21T10:26:03.057Z,36.73
2019-03-21T10:28:32.873Z,38.97
2019-03-21T10:31:02.703Z,42.13
2019-03-21T10:33:32.573Z,42.67
2019-03-21T10:36:02.435Z,43.93
2019-03-21T10:38:32.250Z,47.40
2019-03-21T10:41:02.003Z,44.40
2019-03-21T10:43:31.785Z,48.13
2019-03-21T10:46:01.557Z,44.90
2019-03-21T10:48:31.360Z,42.23
2019-03-21T10:51:01.266Z,46.10
2019-03-21T10:53:31.157Z,45.80
2019-03-21T10:56:00.926Z,48.00
2019-03-21T10:58:30.731Z,46.83
2019-03-21T11:01:00.974Z,47.77
2019-03-21T11:03:30.710Z,46.23
2019-03-21T11:06:00.569Z,45.67
2019-03-21T11:08:30.324Z,44.20
2019-03-21T11:11:00.102Z,45.90
2019-03-21T11:13:29.971Z,45.07
2019-03-21T11:15:59.789Z,44.67
2019-03-21T11:18:36.011Z,47.00
2019-03-21T11:21:01.126Z,44.40
2019-03-21T11:23:30.901Z,43.73
2019-03-21T11:26:00.764Z,42.40
2019-03-21T11:28:30.588Z,45.40
2019-03-21T11:31:00.856Z,40.33
2019-03-21T11:33:30.695Z,42.30
2019-03-21T11:36:00.478Z,41.17
2019-03-21T11:38:30.502Z,39.07
2019-03-21T11:41:00.340Z,38.33
2019-03-21T11:43:30.157Z,35.27
2019-03-21T11:45:59.961Z,36.00
2019-03-21T11:48:29.791Z,34.13
2019-03-21T11:50:59.681Z,34.83
2019-03-21T11:53:29.651Z,33.47
2019-03-21T11:55:59.877Z,34.50
2019-03-21T11:58:29.632Z,31.43
2019-03-21T12:00:59.454Z,32.13
2019-03-21T12:03:29.303Z,29.90
2019-03-21T12:05:59.065Z,31.27
2019-03-21T12:08:28.858Z,30.23
2019-03-21T12:10:58.719Z,29.87
2019-03-21T12:13:28.621Z,29.80
2019-03-21T12:16:04.291Z,31.77
2019-03-21T12:18:34.248Z,29.20
2019-03-21T12:21:04.147Z,29.33
2019-03-21T12:23:33.971Z,29.07
2019-03-21T12:26:03.923Z,28.77
2019-03-21T12:28:33.737Z,29.80
2019-03-21T12:31:03.525Z,30.63
2019-03-21T12:33:33.321Z,29.53
2019-03-21T12:36:03.197Z,30.90
2019-03-21T12:38:32.992Z,30.73
2019-03-21T12:41:02.931Z,28.47
2019-03-21T12:43:35.662Z,29.83
2019-03-21T12:46:05.434Z,29.73
2019-03-21T12:48:35.322Z,29.17
2019-03-21T12:51:05.198Z,30.07
2019-03-21T12:53:35.096Z,29.37
2019-03-21T12:56:05.473Z,29.77
2019-03-21T12:58:35.242Z,29.23
2019-03-21T13:01:05.326Z,29.77
2019-03-21T13:03:35.114Z,29.43
2019-03-21T13:06:04.859Z,30.47
2019-03-21T13:08:34.708Z,32.13
2019-03-21T13:11:04.686Z,31.93
2019-03-21T13:13:34.521Z,32.30
2019-03-21T13:16:04.421Z,31.93
2019-03-21T13:18:34.346Z,31.80
2019-03-21T13:21:04.116Z,32.37
2019-03-21T13:23:37.031Z,34.63
2019-03-21T13:26:06.935Z,28.40
2019-03-21T13:28:36.711Z,32.97
2019-03-21T13:31:06.606Z,34.07
2019-03-21T13:33:36.507Z,35.37
2019-03-21T13:36:06.573Z,32.00
2019-03-21T13:38:36.545Z,33.50
2019-03-21T13:41:06.483Z,34.20
2019-03-21T13:43:36.323Z,32.80
2019-03-21T13:46:06.236Z,33.30
2019-03-21T13:48:36.062Z,32.90
2019-03-21T13:51:05.844Z,31.67
2019-03-21T13:53:35.658Z,31.53
2019-03-21T13:56:05.605Z,32.83
2019-03-21T13:58:35.412Z,32.67
2019-03-21T14:01:05.221Z,33.27
2019-03-21T14:03:35.099Z,32.00
2019-03-21T14:06:04.946Z,34.43
2019-03-21T14:08:34.753Z,32.83
2019-03-21T14:11:04.550Z,33.43
2019-03-21T14:13:34.335Z,33.67
2019-03-21T14:16:04.103Z,33.97
2019-03-21T14:18:33.950Z,34.10
2019-03-21T14:21:04.170Z,34.17
2019-03-21T14:23:42.827Z,35.93
2019-03-21T14:26:05.510Z,34.17
2019-03-21T14:28:35.278Z,36.53
2019-03-21T14:31:05.069Z,37.83
2019-03-21T14:33:34.865Z,37.67
2019-03-21T14:36:04.692Z,38.50
2019-03-21T14:38:34.470Z,38.40
2019-03-21T14:41:04.353Z,39.77
2019-03-21T14:43:34.146Z,39.40
2019-03-21T14:46:03.999Z,37.47
2019-03-21T14:48:33.754Z,38.80
2019-03-21T14:51:03.648Z,38.77
2019-03-21T14:53:33.575Z,37.43
2019-03-21T14:56:03.331Z,38.17
2019-03-21T14:58:33.129Z,37.27
2019-03-21T15:01:03.731Z,38.00
2019-03-21T15:03:33.539Z,36.07
2019-03-21T15:06:03.351Z,35.17
2019-03-21T15:08:33.167Z,36.70
2019-03-21T15:11:03.031Z,36.00
2019-03-21T15:13:32.869Z,38.97
2019-03-21T15:16:02.913Z,39.53
2019-03-21T15:18:32.781Z,39.63
2019-03-21T15:21:02.700Z,38.70
2019-03-21T15:23:40.565Z,37.70
2019-03-21T15:26:04.141Z,38.90
2019-03-21T15:28:33.943Z,38.53
2019-03-21T15:31:03.743Z,38.37
2019-03-21T15:33:33.561Z,37.80
2019-03-21T15:36:03.422Z,37.17
2019-03-21T15:38:33.280Z,37.97
2019-03-21T15:41:03.052Z,36.40
2019-03-21T15:43:32.812Z,34.83
2019-03-21T15:46:02.660Z,37.47
2019-03-21T15:48:32.474Z,31.13
2019-03-21T15:51:04.737Z,31.93
2019-03-21T15:53:34.872Z,31.00
2019-03-21T15:56:05.188Z,29.83
2019-03-21T15:58:34.950Z,31.30
2019-03-21T16:01:04.884Z,29.30
2019-03-21T16:03:35.022Z,28.40
2019-03-21T16:06:04.914Z,28.77
2019-03-21T16:08:34.855Z,28.60
2019-03-21T16:11:04.704Z,27.97
2019-03-21T16:13:34.626Z,28.60
2019-03-21T16:16:04.386Z,25.50
2019-03-21T16:18:34.230Z,28.50
2019-03-21T16:21:06.018Z,24.37
2019-03-21T16:23:35.519Z,25.23
2019-03-21T16:26:05.692Z,24.90
2019-03-21T16:28:54.403Z,23.23
2019-03-21T16:31:24.363Z,23.83
2019-03-21T16:33:54.175Z,25.80
2019-03-21T16:36:23.965Z,23.77
2019-03-21T16:38:53.713Z,23.43
2019-03-21T16:41:23.504Z,24.27
2019-03-21T16:43:53.515Z,23.10
2019-03-21T16:46:23.365Z,23.10
2019-03-21T16:48:53.314Z,23.53
2019-03-21T16:51:23.135Z,22.47
2019-03-21T16:53:53.003Z,22.27
2019-03-21T16:56:22.864Z,22.43
2019-03-21T16:58:52.775Z,21.53
2019-03-21T17:01:22.609Z,21.33
2019-03-21T17:03:52.519Z,22.03
2019-03-21T17:06:22.410Z,22.43
2019-03-21T17:08:52.392Z,22.00
2019-03-21T17:11:22.191Z,21.80
2019-03-21T17:13:52.041Z,22.20
2019-03-21T17:16:21.861Z,21.67
2019-03-21T17:18:51.733Z,22.50
2019-03-21T17:21:21.590Z,21.03
2019-03-21T17:23:51.429Z,21.60
2019-03-21T17:26:21.232Z,22.70
2019-03-21T17:28:51.103Z,20.93
2019-03-21T17:31:20.876Z,21.30
2019-03-21T17:33:50.637Z,21.53
2019-03-21T17:36:20.826Z,22.17
2019-03-21T17:38:50.771Z,23.73
2019-03-21T17:41:20.635Z,24.70
2019-03-21T17:43:50.407Z,24.37
2019-03-21T17:46:20.177Z,23.37
2019-03-21T17:48:50.004Z,24.77
2019-03-21T17:51:19.927Z,24.50
2019-03-21T17:53:49.737Z,26.33
2019-03-21T17:56:19.555Z,25.53
2019-03-21T17:58:49.438Z,25.10
2019-03-21T18:01:19.567Z,26.67
2019-03-21T18:03:49.453Z,25.70
2019-03-21T18:06:19.255Z,25.83
2019-03-21T18:08:49.168Z,26.00
2019-03-21T18:11:19.174Z,25.70
2019-03-21T18:13:49.043Z,26.77
2019-03-21T18:16:18.992Z,26.93
2019-03-21T18:18:48.949Z,28.17
2019-03-21T18:21:19.142Z,26.40
2019-03-21T18:23:49.267Z,27.83
2019-03-21T18:26:19.457Z,27.20
2019-03-21T18:28:49.588Z,27.00
2019-03-21T18:31:19.468Z,27.43
2019-03-21T18:33:49.450Z,27.07
2019-03-21T18:36:19.407Z,26.20
2019-03-21T18:38:57.627Z,27.80
2019-03-21T18:41:23.573Z,29.07
2019-03-21T18:43:53.504Z,28.07
2019-03-21T18:46:23.449Z,28.63
2019-03-21T18:48:53.384Z,27.87
2019-03-21T18:51:23.204Z,27.97
2019-03-21T18:54:00.101Z,26.57
2019-03-21T18:56:30.037Z,26.27
2019-03-21T18:59:00.016Z,27.57
2019-03-21T19:01:32.271Z,29.00
2019-03-21T19:04:02.100Z,27.80
2019-03-21T19:06:33.287Z,29.03
2019-03-21T19:09:03.932Z,29.50
2019-03-21T19:11:33.876Z,27.77
2019-03-21T19:14:03.910Z,26.83
2019-03-21T19:16:33.800Z,29.73
2019-03-21T19:19:06.447Z,28.27
2019-03-21T19:21:36.318Z,29.43
2019-03-21T19:24:06.136Z,28.30
2019-03-21T19:26:35.969Z,28.87
2019-03-21T19:29:07.457Z,29.70
2019-03-21T19:31:37.304Z,27.97
2019-03-21T19:34:08.225Z,27.83
2019-03-21T19:36:38.061Z,27.60
2019-03-21T19:39:09.565Z,28.67
2019-03-21T19:41:39.413Z,29.23
2019-03-21T19:44:09.309Z,29.80
2019-03-21T19:46:39.397Z,29.17
2019-03-21T19:49:18.305Z,28.57
2019-03-21T19:51:48.250Z,29.33
2019-03-21T19:54:18.099Z,29.73
2019-03-21T19:56:47.897Z,29.23
2019-03-21T19:59:17.803Z,28.93
2019-03-21T20:01:47.590Z,30.63
2019-03-21T20:04:17.447Z,30.93
2019-03-21T20:06:47.266Z,30.23
2019-03-21T20:09:17.097Z,28.87
2019-03-21T20:11:46.893Z,31.43
2019-03-21T20:14:16.732Z,29.60
2019-03-21T20:16:46.612Z,30.87
2019-03-21T20:19:16.460Z,29.97
2019-03-21T20:21:48.016Z,31.70
2019-03-21T20:24:17.962Z,31.37
2019-03-21T20:26:47.939Z,31.30
2019-03-21T20:29:17.686Z,32.17
2019-03-21T20:31:47.466Z,30.27
2019-03-21T20:34:17.361Z,31.83
2019-03-21T20:36:47.184Z,31.23
2019-03-21T20:39:17.074Z,31.20
2019-03-21T20:41:46.932Z,31.57
2019-03-21T20:44:16.724Z,32.77
2019-03-21T20:46:46.786Z,33.57
2019-03-21T20:52:05.877Z,35.23
2019-03-21T20:54:36.031Z,34.33
2019-03-21T20:57:06.116Z,35.33
2019-03-21T20:59:36.027Z,37.63
2019-03-21T21:02:05.797Z,36.03
2019-03-21T21:04:35.559Z,38.03
2019-03-21T21:07:05.461Z,38.30
2019-03-21T21:09:35.315Z,39.37
2019-03-21T21:12:05.297Z,36.37
2019-03-21T21:14:35.368Z,39.57
2019-03-21T21:17:05.181Z,38.63
2019-03-21T21:19:35.077Z,38.53
2019-03-21T21:22:05.001Z,40.13
2019-03-21T21:24:34.922Z,38.13
2019-03-21T21:27:04.736Z,36.60
2019-03-21T21:29:34.649Z,40.07
2019-03-21T21:32:04.600Z,40.60
2019-03-21T21:34:34.405Z,37.23
2019-03-21T21:37:04.493Z,38.70
2019-03-21T21:39:34.355Z,39.10
2019-03-21T21:42:04.195Z,39.97
2019-03-21T21:44:34.032Z,41.13
2019-03-21T21:47:03.801Z,41.90
2019-03-21T21:49:33.695Z,40.80
2019-03-21T21:52:03.807Z,44.50
2019-03-21T21:54:33.804Z,40.93
2019-03-21T21:57:03.712Z,41.30
2019-03-21T21:59:33.466Z,42.30
2019-03-21T22:02:03.266Z,41.73
2019-03-21T22:04:32.986Z,41.23
2019-03-21T22:07:02.850Z,41.83
2019-03-21T22:09:32.738Z,41.10
2019-03-21T22:12:02.601Z,43.63
2019-03-21T22:14:32.595Z,41.83
2019-03-21T22:17:02.424Z,44.30
2019-03-21T22:19:32.168Z,43.23
2019-03-21T22:22:02.027Z,43.50
2019-03-21T22:24:31.898Z,41.90
2019-03-21T22:27:01.726Z,45.17
2019-03-21T22:29:34.279Z,43.40
2019-03-21T22:32:04.132Z,46.40
2019-03-21T22:34:33.969Z,46.73
2019-03-21T22:37:03.872Z,46.10
2019-03-21T22:39:33.731Z,45.37
2019-03-21T22:42:03.630Z,46.90
2019-03-21T22:44:33.538Z,46.87
2019-03-21T22:47:03.385Z,46.47
2019-03-21T22:49:33.299Z,46.17
2019-03-21T22:52:03.088Z,46.77
2019-03-21T22:54:32.953Z,45.27
2019-03-21T22:57:02.793Z,45.93
2019-03-21T22:59:32.687Z,44.07
2019-03-21T23:02:02.943Z,47.20
2019-03-21T23:04:32.762Z,46.67
2019-03-21T23:07:02.669Z,44.30
2019-03-21T23:09:32.476Z,45.37
2019-03-21T23:12:02.214Z,45.03
2019-03-21T23:14:31.992Z,45.47
2019-03-21T23:17:01.733Z,44.50
2019-03-21T23:19:31.516Z,47.33
2019-03-21T23:22:01.454Z,45.30
2019-03-21T23:24:31.288Z,43.57
2019-03-21T23:27:01.022Z,47.33
2019-03-21T23:29:30.800Z,45.73
2019-03-21T23:32:00.579Z,49.83
2019-03-21T23:34:30.430Z,44.90
2019-03-21T23:37:00.214Z,48.73
2019-03-21T23:39:29.982Z,48.97
2019-03-21T23:41:59.880Z,47.20
2019-03-21T23:44:29.680Z,46.53
2019-03-21T23:46:59.425Z,48.07
2019-03-21T23:49:29.159Z,49.20
2019-03-21T23:51:59.011Z,48.10
2019-03-21T23:54:28.850Z,49.00
2019-03-21T23:57:04.506Z,48.07
2019-03-21T23:59:30.247Z,52.43
